Airfield :
LOGIN :

Register | Disclaimer

   EN    FR    IT 

 










Legend :    VFR   Marginal VFR   IFR   Intensive IFR   Very Intensive IFR
Visi :
Ceiling :
>= 8 km
>= 3000ft
5 to 8 km
1000 to 3000 ft
1500m to 5 km
500 to 1000 ft
800 to 1500m
200 to 500 ft
< 800m
< 200 ft
Symbols :   Thunderstorms  Fog  Heavy snow  Heavy precipitations  Wind > 20 kt
SIGMETs :     Misc.  Thunderstorms  Icing  Turbulence  Mountain Waves  Volcanic Ashes







- Airport Elevation : 27 ft
- IATA code : PMI


LEPA - Palma de Mallorca

CURRENT METAR :
  • 221530Z 06012KT 9999 FEW018 18/10 Q1024 NOSIG

EXPIRED METARs :
  • 221500Z 06013KT 9999 FEW018 20/09 Q1024 NOSIG
  • 221400Z 06013KT 030V090 9999 FEW018 19/08 Q1024 NOSIG
  • 221330Z 06016KT 9999 FEW018 20/08 Q1024 NOSIG
  • 221300Z 06016KT 9999 FEW018 20/10 Q1024 NOSIG

TAF TAF LEPA
Valid from the 22 at 12:00 until the 23 at 12:00 UTC


221100Z 2212/2312 05018KT 9999 FEW020 TX20/2213Z TN07/2306Z
TEMPO 2212/2217 06020G30KT
BECMG 2218/2220 04005KT
PROB30
TEMPO 2220/2306 4000 BR BKN012
No reported NOTAMs for that airfield.



MET'MAP, your aeronautical weather chart ! - Copyright ORBIFLY December 2007 - Disclaimer

ORBIFLY MET'MAP TEAM :

Programming & Development : Alexandra Zaïnal
Concept & Development : Baudouin d'Aumeries
Co-Development & Prog : Marc-Olivier Méhu
Technical & hardware support : Manuel Goepfert

Contact : metmap@orbifly.com




SOURCES & CREDITS :

   NOAA